sensor_id;sensor_type;location;lat;lon;timestamp;temperature;humidity
67890;DHT22;54685;52.082;5.426;2024-01-15T00:00:23;1.80;99.90
67890;DHT22;54685;52.082;5.426;2024-01-15T00:02:50;1.80;99.90
67890;DHT22;54685;52.082;5.426;2024-01-15T00:05:17;1.80;99.90
67890;DHT22;54685;52.082;5.426;2024-01-15T00:07:44;1.80;99.90
67890;DHT22;54685;52.082;5.426;2024-01-15T00:10:11;1.80;99.90
67890;DHT22;54685;52.082;5.426;2024-01-15T00:12:38;1.80;99.90
67890;DHT22;54685;52.082;5.426;2024-01-15T00:15:05;1.70;99.90
67890;DHT22;54685;52.082;5.426;2024-01-15T00:17:32;1.70;99.90
67890;DHT22;54685;52.082;5.426;2024-01-15T00:19:59;1.60;99.90
67890;DHT22;54685;52.082;5.426;2024-01-15T00:22:26;1.50;99.90
67890;DHT22;54685;52.082;5.426;2024-01-15T00:24:56;1.60;99.90
67890;DHT22;54685;52.082;5.426;2024-01-15T00:27:23;1.50;99.90
67890;DHT22;54685;52.082;5.426;2024-01-15T00:29:50;1.50;99.90
67890;DHT22;54685;52.082;5.426;2024-01-15T00:32:18;1.40;99.90
67890;DHT22;54685;52.082;5.426;2024-01-15T00:34:47;1.40;99.90
67890;DHT22;54685;52.082;5.426;2024-01-15T00:37:14;1.40;99.90
67890;DHT22;54685;52.082;5.426;2024-01-15T00:39:43;1.40;99.90
67890;DHT22;54685;52.082;5.426;2024-01-15T00:42:12;1.40;99.90
67890;DHT22;54685;52.082;5.426;2024-01-15T00:44:39;1.40;99.90
67890;DHT22;54685;52.082;5.426;2024-01-15T00:47:06;1.40;99.90
67890;DHT22;54685;52.082;5.426;2024-01-15T00:49:33;1.40;99.90
67890;DHT22;54685;52.082;5.426;2024-01-15T00:52:00;1.40;99.90
67890;DHT22;54685;52.082;5.426;2024-01-15T00:54:27;1.40;99.90
67890;DHT22;54685;52.082;5.426;2024-01-15T00:56:54;1.30;99.90
67890;DHT22;54685;52.082;5.426;2024-01-15T00:59:21;1.30;99.90
67890;DHT22;54685;52.082;5.426;2024-01-15T01:01:48;1.30;99.90
67890;DHT22;54685;52.082;5.426;2024-01-15T01:04:16;1.40;99.90
67890;DHT22;54685;52.082;5.426;2024-01-15T01:06:43;1.30;99.90
67890;DHT22;54685;52.082;5.426;2024-01-15T01:09:10;1.30;99.90
67890;DHT22;54685;52.082;5.426;2024-01-15T01:11:37;1.30;99.90
67890;DHT22;54685;52.082;5.426;2024-01-15T01:14:05;1.20;99.90
67890;DHT22;54685;52.082;5.426;2024-01-15T01:16:32;1.20;99.90
67890;DHT22;54685;52.082;5.426;2024-01-15T01:19:06;1.20;99.90
67890;DHT22;54685;52.082;5.426;2024-01-15T01:21:34;1.20;99.90
67890;DHT22;54685;52.082;5.426;2024-01-15T01:24:01;1.20;99.90
67890;DHT22;54685;52.082;5.426;2024-01-15T01:26:28;1.20;99.90
67890;DHT22;54685;52.082;5.426;2024-01-15T01:28:55;1.20;99.90
67890;DHT22;54685;52.082;5.426;2024-01-15T01:31:23;1.20;99.90
67890;DHT22;54685;52.082;5.426;2024-01-15T01:33:50;1.20;99.90
67890;DHT22;54685;52.082;5.426;2024-01-15T01:36:17;1.20;99.90
67890;DHT22;54685;52.082;5.426;2024-01-15T01:38:45;1.20;99.90
67890;DHT22;54685;52.082;5.426;2024-01-15T01:41:11;1.20;99.90
67890;DHT22;54685;52.082;5.426;2024-01-15T01:43:38;1.20;99.90
67890;DHT22;54685;52.082;5.426;2024-01-15T01:46:05;1.20;99.90
67890;DHT22;54685;52.082;5.426;2024-01-15T01:48:34;1.20;99.90
67890;DHT22;54685;52.082;5.426;2024-01-15T01:51:02;1.30;99.90
67890;DHT22;54685;52.082;5.426;2024-01-15T01:53:32;1.30;99.90
67890;DHT22;54685;52.082;5.426;2024-01-15T01:56:00;1.30;99.90
67890;DHT22;54685;52.082;5.426;2024-01-15T01:58:28;1.30;99.90
67890;DHT22;54685;52.082;5.426;2024-01-15T02:00:56;1.30;99.90
67890;DHT22;54685;52.082;5.426;2024-01-15T02:03:23;1.20;99.90
67890;DHT22;54685;52.082;5.426;2024-01-15T02:05:50;1.30;99.90
67890;DHT22;54685;52.082;5.426;2024-01-15T02:08:18;1.30;99.90
67890;DHT22;54685;52.082;5.426;2024-01-15T02:10:45;1.30;99.90
67890;DHT22;54685;52.082;5.426;2024-01-15T02:13:11;1.40;99.90
67890;DHT22;54685;52.082;5.426;2024-01-15T02:15:38;1.40;99.90
67890;DHT22;54685;52.082;5.426;2024-01-15T02:18:08;1.40;99.90
67890;DHT22;54685;52.082;5.426;2024-01-15T02:20:36;1.50;99.90
67890;DHT22;54685;52.082;5.426;2024-01-15T02:23:10;1.50;99.90
67890;DHT22;54685;52.082;5.426;2024-01-15T02:25:40;1.50;99.90
67890;DHT22;54685;52.082;5.426;2024-01-15T02:28:13;1.50;99.90
67890;DHT22;54685;52.082;5.426;2024-01-15T02:30:41;1.60;99.90
67890;DHT22;54685;52.082;5.426;2024-01-15T02:33:09;1.60;99.90
67890;DHT22;54685;52.082;5.426;2024-01-15T02:35:37;1.70;99.90
67890;DHT22;54685;52.082;5.426;2024-01-15T02:38:07;1.70;99.90
67890;DHT22;54685;52.082;5.426;2024-01-15T02:40:35;1.70;99.90
67890;DHT22;54685;52.082;5.426;2024-01-15T02:43:02;1.70;99.90
67890;DHT22;54685;52.082;5.426;2024-01-15T02:45:29;1.60;99.90
67890;DHT22;54685;52.082;5.426;2024-01-15T02:47:57;1.60;99.90
67890;DHT22;54685;52.082;5.426;2024-01-15T02:50:24;1.60;99.90
67890;DHT22;54685;52.082;5.426;2024-01-15T02:52:51;1.60;99.90
67890;DHT22;54685;52.082;5.426;2024-01-15T02:55:18;1.60;99.90
67890;DHT22;54685;52.082;5.426;2024-01-15T02:57:45;1.50;99.90
67890;DHT22;54685;52.082;5.426;2024-01-15T03:00:12;1.50;99.90
67890;DHT22;54685;52.082;5.426;2024-01-15T03:02:40;1.50;99.90
67890;DHT22;54685;52.082;5.426;2024-01-15T03:05:11;1.50;99.90
67890;DHT22;54685;52.082;5.426;2024-01-15T03:07:38;1.50;99.90
67890;DHT22;54685;52.082;5.426;2024-01-15T03:10:06;1.50;99.90
67890;DHT22;54685;52.082;5.426;2024-01-15T03:12:33;1.50;99.90
67890;DHT22;54685;52.082;5.426;2024-01-15T03:15:00;1.60;99.90
67890;DHT22;54685;52.082;5.426;2024-01-15T03:17:27;1.60;99.90
67890;DHT22;54685;52.082;5.426;2024-01-15T03:19:57;1.60;99.90
67890;DHT22;54685;52.082;5.426;2024-01-15T03:22:24;1.50;99.90
67890;DHT22;54685;52.082;5.426;2024-01-15T03:24:52;1.50;99.90
67890;DHT22;54685;52.082;5.426;2024-01-15T03:27:19;1.50;99.90
67890;DHT22;54685;52.082;5.426;2024-01-15T03:29:46;1.40;99.90
67890;DHT22;54685;52.082;5.426;2024-01-15T03:32:13;1.40;99.90
67890;DHT22;54685;52.082;5.426;2024-01-15T03:34:40;1.40;99.90
67890;DHT22;54685;52.082;5.426;2024-01-15T03:37:07;1.30;99.90
67890;DHT22;54685;52.082;5.426;2024-01-15T03:39:34;1.30;99.90
67890;DHT22;54685;52.082;5.426;2024-01-15T03:42:01;1.30;99.90
67890;DHT22;54685;52.082;5.426;2024-01-15T03:44:28;1.30;99.90
67890;DHT22;54685;52.082;5.426;2024-01-15T03:46:55;1.40;99.90
67890;DHT22;54685;52.082;5.426;2024-01-15T03:49:22;1.40;99.90
67890;DHT22;54685;52.082;5.426;2024-01-15T03:51:49;1.40;99.90
67890;DHT22;54685;52.082;5.426;2024-01-15T03:54:16;1.40;99.90
67890;DHT22;54685;52.082;5.426;2024-01-15T03:56:46;1.40;99.90
67890;DHT22;54685;52.082;5.426;2024-01-15T03:59:13;1.40;99.90
67890;DHT22;54685;52.082;5.426;2024-01-15T04:01:40;1.40;99.90
67890;DHT22;54685;52.082;5.426;2024-01-15T04:04:07;1.40;99.90
67890;DHT22;54685;52.082;5.426;2024-01-15T04:06:34;1.40;99.90
67890;DHT22;54685;52.082;5.426;2024-01-15T04:09:01;1.40;99.90
67890;DHT22;54685;52.082;5.426;2024-01-15T04:11:28;1.40;99.90
67890;DHT22;54685;52.082;5.426;2024-01-15T04:13:55;1.40;99.90
67890;DHT22;54685;52.082;5.426;2024-01-15T04:16:22;1.40;99.90
67890;DHT22;54685;52.082;5.426;2024-01-15T04:18:49;1.40;99.90
67890;DHT22;54685;52.082;5.426;2024-01-15T04:21:17;1.40;99.90
67890;DHT22;54685;52.082;5.426;2024-01-15T04:23:45;1.50;99.90
67890;DHT22;54685;52.082;5.426;2024-01-15T04:26:12;1.50;99.90
67890;DHT22;54685;52.082;5.426;2024-01-15T04:28:39;1.60;99.90
67890;DHT22;54685;52.082;5.426;2024-01-15T04:31:06;1.50;99.90
67890;DHT22;54685;52.082;5.426;2024-01-15T04:33:33;1.50;99.90
67890;DHT22;54685;52.082;5.426;2024-01-15T04:36:04;1.40;99.90
67890;DHT22;54685;52.082;5.426;2024-01-15T04:38:32;1.40;99.90
67890;DHT22;54685;52.082;5.426;2024-01-15T04:40:59;1.40;99.90
67890;DHT22;54685;52.082;5.426;2024-01-15T04:43:26;1.30;99.90
67890;DHT22;54685;52.082;5.426;2024-01-15T04:45:53;1.40;99.90
67890;DHT22;54685;52.082;5.426;2024-01-15T04:48:20;1.20;99.90
67890;DHT22;54685;52.082;5.426;2024-01-15T04:50:49;1.20;99.90
67890;DHT22;54685;52.082;5.426;2024-01-15T04:53:19;1.20;99.90
67890;DHT22;54685;52.082;5.426;2024-01-15T04:55:46;1.10;99.90
67890;DHT22;54685;52.082;5.426;2024-01-15T04:58:13;1.20;99.90
67890;DHT22;54685;52.082;5.426;2024-01-15T05:00:40;1.20;99.90
67890;DHT22;54685;52.082;5.426;2024-01-15T05:03:07;1.20;99.90
67890;DHT22;54685;52.082;5.426;2024-01-15T05:05:34;1.10;99.90
67890;DHT22;54685;52.082;5.426;2024-01-15T05:08:01;1.10;99.90
67890;DHT22;54685;52.082;5.426;2024-01-15T05:10:28;1.10;99.90
67890;DHT22;54685;52.082;5.426;2024-01-15T05:12:55;1.20;99.90
67890;DHT22;54685;52.082;5.426;2024-01-15T05:15:22;1.20;99.90
67890;DHT22;54685;52.082;5.426;2024-01-15T05:17:50;1.20;99.90
67890;DHT22;54685;52.082;5.426;2024-01-15T05:20:16;1.10;99.90
67890;DHT22;54685;52.082;5.426;2024-01-15T05:22:44;1.20;99.90
67890;DHT22;54685;52.082;5.426;2024-01-15T05:25:11;1.30;99.90
67890;DHT22;54685;52.082;5.426;2024-01-15T05:27:38;1.30;99.90
67890;DHT22;54685;52.082;5.426;2024-01-15T05:30:05;1.30;99.90
67890;DHT22;54685;52.082;5.426;2024-01-15T05:32:32;1.30;99.90
67890;DHT22;54685;52.082;5.426;2024-01-15T05:34:59;1.20;99.90
67890;DHT22;54685;52.082;5.426;2024-01-15T05:37:27;1.30;99.90
67890;DHT22;54685;52.082;5.426;2024-01-15T05:39:53;1.30;99.90
67890;DHT22;54685;52.082;5.426;2024-01-15T05:42:20;1.30;99.90
67890;DHT22;54685;52.082;5.426;2024-01-15T05:44:47;1.30;99.90
67890;DHT22;54685;52.082;5.426;2024-01-15T05:47:14;1.30;99.90
67890;DHT22;54685;52.082;5.426;2024-01-15T05:49:41;1.30;99.90
67890;DHT22;54685;52.082;5.426;2024-01-15T05:52:08;1.30;99.90
67890;DHT22;54685;52.082;5.426;2024-01-15T05:54:35;1.30;99.90
67890;DHT22;54685;52.082;5.426;2024-01-15T05:57:02;1.30;99.90
67890;DHT22;54685;52.082;5.426;2024-01-15T05:59:29;1.30;99.90
67890;DHT22;54685;52.082;5.426;2024-01-15T06:01:59;1.30;99.90
67890;DHT22;54685;52.082;5.426;2024-01-15T06:04:25;1.30;99.90
67890;DHT22;54685;52.082;5.426;2024-01-15T06:06:52;1.40;99.90
67890;DHT22;54685;52.082;5.426;2024-01-15T06:09:19;1.40;99.90
67890;DHT22;54685;52.082;5.426;2024-01-15T06:11:46;1.30;99.90
67890;DHT22;54685;52.082;5.426;2024-01-15T06:14:13;1.40;99.90
67890;DHT22;54685;52.082;5.426;2024-01-15T06:16:40;1.40;99.90
67890;DHT22;54685;52.082;5.426;2024-01-15T06:19:07;1.40;99.90
67890;DHT22;54685;52.082;5.426;2024-01-15T06:21:34;1.40;99.90
67890;DHT22;54685;52.082;5.426;2024-01-15T06:24:01;1.30;99.90
67890;DHT22;54685;52.082;5.426;2024-01-15T06:26:28;1.20;99.90
67890;DHT22;54685;52.082;5.426;2024-01-15T06:28:55;1.20;99.90
67890;DHT22;54685;52.082;5.426;2024-01-15T06:31:22;1.20;99.90
67890;DHT22;54685;52.082;5.426;2024-01-15T06:33:49;1.20;99.90
67890;DHT22;54685;52.082;5.426;2024-01-15T06:36:16;1.10;99.90
67890;DHT22;54685;52.082;5.426;2024-01-15T06:38:43;1.20;99.90
67890;DHT22;54685;52.082;5.426;2024-01-15T06:41:11;1.10;99.90
67890;DHT22;54685;52.082;5.426;2024-01-15T06:43:38;1.10;99.90
67890;DHT22;54685;52.082;5.426;2024-01-15T06:46:05;1.20;99.90
67890;DHT22;54685;52.082;5.426;2024-01-15T06:48:34;1.10;99.90
67890;DHT22;54685;52.082;5.426;2024-01-15T06:51:01;1.10;99.90
67890;DHT22;54685;52.082;5.426;2024-01-15T06:53:28;1.20;99.90
67890;DHT22;54685;52.082;5.426;2024-01-15T06:55:55;1.20;99.90
67890;DHT22;54685;52.082;5.426;2024-01-15T06:58:22;1.20;99.90
67890;DHT22;54685;52.082;5.426;2024-01-15T07:00:49;1.20;99.90
67890;DHT22;54685;52.082;5.426;2024-01-15T07:03:16;1.20;99.90
67890;DHT22;54685;52.082;5.426;2024-01-15T07:05:43;1.20;99.90
67890;DHT22;54685;52.082;5.426;2024-01-15T07:08:10;1.20;99.90
67890;DHT22;54685;52.082;5.426;2024-01-15T07:10:37;1.20;99.90
67890;DHT22;54685;52.082;5.426;2024-01-15T07:13:04;1.20;99.90
67890;DHT22;54685;52.082;5.426;2024-01-15T07:15:32;1.20;99.90
67890;DHT22;54685;52.082;5.426;2024-01-15T07:17:59;1.20;99.90
67890;DHT22;54685;52.082;5.426;2024-01-15T07:20:26;1.20;99.90
67890;DHT22;54685;52.082;5.426;2024-01-15T07:22:53;1.10;99.90
67890;DHT22;54685;52.082;5.426;2024-01-15T07:25:20;1.10;99.90
67890;DHT22;54685;52.082;5.426;2024-01-15T07:27:47;1.00;99.90
67890;DHT22;54685;52.082;5.426;2024-01-15T07:30:14;1.00;99.90
67890;DHT22;54685;52.082;5.426;2024-01-15T07:32:42;1.00;99.90
67890;DHT22;54685;52.082;5.426;2024-01-15T07:35:09;0.90;99.90
67890;DHT22;54685;52.082;5.426;2024-01-15T07:37:37;0.90;99.90
67890;DHT22;54685;52.082;5.426;2024-01-15T07:40:04;0.90;99.90
67890;DHT22;54685;52.082;5.426;2024-01-15T07:42:32;0.90;99.90
67890;DHT22;54685;52.082;5.426;2024-01-15T07:44:59;0.90;99.90
67890;DHT22;54685;52.082;5.426;2024-01-15T07:47:27;1.00;99.90
67890;DHT22;54685;52.082;5.426;2024-01-15T07:49:54;0.90;99.90
67890;DHT22;54685;52.082;5.426;2024-01-15T07:52:23;1.00;99.90
67890;DHT22;54685;52.082;5.426;2024-01-15T07:54:50;1.00;99.90
67890;DHT22;54685;52.082;5.426;2024-01-15T07:57:17;1.00;99.90
67890;DHT22;54685;52.082;5.426;2024-01-15T07:59:44;1.00;99.90
67890;DHT22;54685;52.082;5.426;2024-01-15T08:02:11;1.00;99.90
67890;DHT22;54685;52.082;5.426;2024-01-15T08:04:38;1.00;99.90
67890;DHT22;54685;52.082;5.426;2024-01-15T08:07:06;1.00;99.90
67890;DHT22;54685;52.082;5.426;2024-01-15T08:09:34;1.00;99.90
67890;DHT22;54685;52.082;5.426;2024-01-15T08:12:01;1.00;99.90
67890;DHT22;54685;52.082;5.426;2024-01-15T08:14:29;1.00;99.90
67890;DHT22;54685;52.082;5.426;2024-01-15T08:16:56;1.00;99.90
67890;DHT22;54685;52.082;5.426;2024-01-15T08:19:23;1.10;99.90
67890;DHT22;54685;52.082;5.426;2024-01-15T08:21:50;1.20;99.90
67890;DHT22;54685;52.082;5.426;2024-01-15T08:24:17;1.10;99.90
67890;DHT22;54685;52.082;5.426;2024-01-15T08:26:44;1.10;99.90
67890;DHT22;54685;52.082;5.426;2024-01-15T08:29:12;1.10;99.90
67890;DHT22;54685;52.082;5.426;2024-01-15T08:31:38;1.10;99.90
67890;DHT22;54685;52.082;5.426;2024-01-15T08:34:06;1.10;99.90
67890;DHT22;54685;52.082;5.426;2024-01-15T08:36:33;1.00;99.90
67890;DHT22;54685;52.082;5.426;2024-01-15T08:39:02;1.00;99.90
67890;DHT22;54685;52.082;5.426;2024-01-15T08:41:32;1.00;99.90
67890;DHT22;54685;52.082;5.426;2024-01-15T08:43:59;1.00;99.90
67890;DHT22;54685;52.082;5.426;2024-01-15T08:46:26;1.00;99.90
67890;DHT22;54685;52.082;5.426;2024-01-15T08:48:53;1.00;99.90
67890;DHT22;54685;52.082;5.426;2024-01-15T08:51:20;1.00;99.90
67890;DHT22;54685;52.082;5.426;2024-01-15T08:53:47;1.00;99.90
67890;DHT22;54685;52.082;5.426;2024-01-15T08:56:14;1.10;99.90
67890;DHT22;54685;52.082;5.426;2024-01-15T08:58:42;1.10;99.90
67890;DHT22;54685;52.082;5.426;2024-01-15T09:01:09;1.20;99.90
67890;DHT22;54685;52.082;5.426;2024-01-15T09:03:36;1.20;99.90
67890;DHT22;54685;52.082;5.426;2024-01-15T09:06:04;1.30;99.90
67890;DHT22;54685;52.082;5.426;2024-01-15T09:08:31;1.30;99.90
67890;DHT22;54685;52.082;5.426;2024-01-15T09:10:58;1.30;99.90
67890;DHT22;54685;52.082;5.426;2024-01-15T09:13:25;1.20;99.90
67890;DHT22;54685;52.082;5.426;2024-01-15T09:15:52;1.30;99.90
67890;DHT22;54685;52.082;5.426;2024-01-15T09:18:19;1.30;99.90
67890;DHT22;54685;52.082;5.426;2024-01-15T09:20:46;1.20;99.90
67890;DHT22;54685;52.082;5.426;2024-01-15T09:23:13;1.20;99.90
67890;DHT22;54685;52.082;5.426;2024-01-15T09:25:40;1.10;99.90
67890;DHT22;54685;52.082;5.426;2024-01-15T09:28:07;1.10;99.90
67890;DHT22;54685;52.082;5.426;2024-01-15T09:30:34;1.10;99.90
67890;DHT22;54685;52.082;5.426;2024-01-15T09:33:05;1.10;99.90
67890;DHT22;54685;52.082;5.426;2024-01-15T09:35:32;1.10;99.90
67890;DHT22;54685;52.082;5.426;2024-01-15T09:37:59;1.10;99.90
67890;DHT22;54685;52.082;5.426;2024-01-15T09:40:31;1.10;99.90
67890;DHT22;54685;52.082;5.426;2024-01-15T09:43:02;1.10;99.90
67890;DHT22;54685;52.082;5.426;2024-01-15T09:45:30;1.10;99.90
67890;DHT22;54685;52.082;5.426;2024-01-15T09:47:58;1.20;99.90
67890;DHT22;54685;52.082;5.426;2024-01-15T09:50:25;1.30;99.90
67890;DHT22;54685;52.082;5.426;2024-01-15T09:52:54;1.40;99.90
67890;DHT22;54685;52.082;5.426;2024-01-15T09:55:21;1.40;99.90
67890;DHT22;54685;52.082;5.426;2024-01-15T09:57:49;1.40;99.90
67890;DHT22;54685;52.082;5.426;2024-01-15T10:00:20;1.50;99.90
67890;DHT22;54685;52.082;5.426;2024-01-15T10:02:47;1.40;99.90
67890;DHT22;54685;52.082;5.426;2024-01-15T10:05:14;1.40;99.90
67890;DHT22;54685;52.082;5.426;2024-01-15T10:07:42;1.40;99.90
67890;DHT22;54685;52.082;5.426;2024-01-15T10:10:11;1.30;99.90
67890;DHT22;54685;52.082;5.426;2024-01-15T10:12:39;1.30;99.90
67890;DHT22;54685;52.082;5.426;2024-01-15T10:15:09;1.30;99.90
67890;DHT22;54685;52.082;5.426;2024-01-15T10:17:38;1.30;99.90
67890;DHT22;54685;52.082;5.426;2024-01-15T10:20:12;1.50;99.90
67890;DHT22;54685;52.082;5.426;2024-01-15T10:22:42;1.60;99.90
67890;DHT22;54685;52.082;5.426;2024-01-15T10:25:11;1.70;99.90
67890;DHT22;54685;52.082;5.426;2024-01-15T10:27:40;1.70;99.90
67890;DHT22;54685;52.082;5.426;2024-01-15T10:30:12;1.80;99.90
67890;DHT22;54685;52.082;5.426;2024-01-15T10:32:41;2.00;99.90
67890;DHT22;54685;52.082;5.426;2024-01-15T10:35:08;2.10;99.90
67890;DHT22;54685;52.082;5.426;2024-01-15T10:37:35;1.90;99.90
67890;DHT22;54685;52.082;5.426;2024-01-15T10:40:03;1.80;99.90
67890;DHT22;54685;52.082;5.426;2024-01-15T10:42:31;1.70;99.90
67890;DHT22;54685;52.082;5.426;2024-01-15T10:44:59;1.60;99.90
67890;DHT22;54685;52.082;5.426;2024-01-15T10:47:26;1.60;99.90
67890;DHT22;54685;52.082;5.426;2024-01-15T10:49:53;1.70;99.90
67890;DHT22;54685;52.082;5.426;2024-01-15T10:52:21;1.80;99.90
67890;DHT22;54685;52.082;5.426;2024-01-15T10:54:49;1.90;99.90
67890;DHT22;54685;52.082;5.426;2024-01-15T10:57:16;1.90;99.90
67890;DHT22;54685;52.082;5.426;2024-01-15T10:59:43;1.90;99.90
67890;DHT22;54685;52.082;5.426;2024-01-15T11:02:12;2.00;99.90
67890;DHT22;54685;52.082;5.426;2024-01-15T11:04:40;2.00;99.90
67890;DHT22;54685;52.082;5.426;2024-01-15T11:07:08;2.10;99.90
67890;DHT22;54685;52.082;5.426;2024-01-15T11:09:37;2.20;99.90
67890;DHT22;54685;52.082;5.426;2024-01-15T11:12:11;2.20;99.90
67890;DHT22;54685;52.082;5.426;2024-01-15T11:14:40;2.30;99.90
67890;DHT22;54685;52.082;5.426;2024-01-15T11:17:08;2.30;99.90
67890;DHT22;54685;52.082;5.426;2024-01-15T11:22:09;2.30;99.90
67890;DHT22;54685;52.082;5.426;2024-01-15T11:24:40;2.30;99.90
67890;DHT22;54685;52.082;5.426;2024-01-15T11:27:08;2.20;99.90
67890;DHT22;54685;52.082;5.426;2024-01-15T11:29:36;2.20;99.90
67890;DHT22;54685;52.082;5.426;2024-01-15T11:32:05;2.20;99.90
67890;DHT22;54685;52.082;5.426;2024-01-15T11:34:52;2.20;99.90
67890;DHT22;54685;52.082;5.426;2024-01-15T11:37:20;2.10;99.90
67890;DHT22;54685;52.082;5.426;2024-01-15T11:39:48;2.20;99.90
67890;DHT22;54685;52.082;5.426;2024-01-15T11:42:15;2.40;99.90
67890;DHT22;54685;52.082;5.426;2024-01-15T11:44:43;2.70;99.90
67890;DHT22;54685;52.082;5.426;2024-01-15T11:47:11;2.90;99.90
67890;DHT22;54685;52.082;5.426;2024-01-15T11:52:25;2.80;99.90
67890;DHT22;54685;52.082;5.426;2024-01-15T11:57:45;2.70;99.90
67890;DHT22;54685;52.082;5.426;2024-01-15T12:00:13;2.50;99.90
67890;DHT22;54685;52.082;5.426;2024-01-15T12:02:41;2.60;99.90
67890;DHT22;54685;52.082;5.426;2024-01-15T12:05:12;2.60;99.90
67890;DHT22;54685;52.082;5.426;2024-01-15T12:07:44;2.50;99.90
67890;DHT22;54685;52.082;5.426;2024-01-15T12:10:14;2.40;99.90
67890;DHT22;54685;52.082;5.426;2024-01-15T12:15:23;2.40;99.90
67890;DHT22;54685;52.082;5.426;2024-01-15T12:17:50;2.30;99.90
67890;DHT22;54685;52.082;5.426;2024-01-15T12:20:18;2.30;99.90
67890;DHT22;54685;52.082;5.426;2024-01-15T12:22:45;2.50;99.90
67890;DHT22;54685;52.082;5.426;2024-01-15T12:25:27;3.20;99.90
67890;DHT22;54685;52.082;5.426;2024-01-15T12:27:56;3.70;99.90
67890;DHT22;54685;52.082;5.426;2024-01-15T12:30:23;4.10;99.90
67890;DHT22;54685;52.082;5.426;2024-01-15T12:32:50;4.00;99.90
67890;DHT22;54685;52.082;5.426;2024-01-15T12:35:17;3.80;99.90
67890;DHT22;54685;52.082;5.426;2024-01-15T12:37:44;3.60;99.90
67890;DHT22;54685;52.082;5.426;2024-01-15T12:40:19;3.40;99.90
67890;DHT22;54685;52.082;5.426;2024-01-15T12:42:46;3.30;99.90
67890;DHT22;54685;52.082;5.426;2024-01-15T12:45:14;3.10;99.90
67890;DHT22;54685;52.082;5.426;2024-01-15T12:47:41;2.90;99.90
67890;DHT22;54685;52.082;5.426;2024-01-15T12:50:10;2.60;99.90
67890;DHT22;54685;52.082;5.426;2024-01-15T12:52:45;2.40;99.90
67890;DHT22;54685;52.082;5.426;2024-01-15T12:55:13;2.30;99.90
67890;DHT22;54685;52.082;5.426;2024-01-15T12:57:40;2.10;99.90
67890;DHT22;54685;52.082;5.426;2024-01-15T13:00:08;2.00;99.90
67890;DHT22;54685;52.082;5.426;2024-01-15T13:02:40;2.00;99.90
67890;DHT22;54685;52.082;5.426;2024-01-15T13:05:09;1.90;99.90
67890;DHT22;54685;52.082;5.426;2024-01-15T13:07:39;1.80;99.90
67890;DHT22;54685;52.082;5.426;2024-01-15T13:10:07;1.90;99.90
67890;DHT22;54685;52.082;5.426;2024-01-15T13:12:36;1.80;99.90
67890;DHT22;54685;52.082;5.426;2024-01-15T13:15:07;1.80;99.90
67890;DHT22;54685;52.082;5.426;2024-01-15T13:17:41;1.80;99.90
67890;DHT22;54685;52.082;5.426;2024-01-15T13:20:08;1.80;99.90
67890;DHT22;54685;52.082;5.426;2024-01-15T13:22:37;1.90;99.90
67890;DHT22;54685;52.082;5.426;2024-01-15T13:25:06;1.80;99.90
67890;DHT22;54685;52.082;5.426;2024-01-15T13:27:34;1.90;99.90
67890;DHT22;54685;52.082;5.426;2024-01-15T13:30:06;1.90;99.90
67890;DHT22;54685;52.082;5.426;2024-01-15T13:32:35;2.50;99.90
67890;DHT22;54685;52.082;5.426;2024-01-15T13:35:03;3.10;99.90
67890;DHT22;54685;52.082;5.426;2024-01-15T13:37:32;3.80;99.90
67890;DHT22;54685;52.082;5.426;2024-01-15T13:39:59;4.40;99.90
67890;DHT22;54685;52.082;5.426;2024-01-15T13:42:26;5.00;99.90
67890;DHT22;54685;52.082;5.426;2024-01-15T13:44:54;5.00;99.90
67890;DHT22;54685;52.082;5.426;2024-01-15T13:47:21;4.90;99.90
67890;DHT22;54685;52.082;5.426;2024-01-15T13:49:49;4.70;99.90
67890;DHT22;54685;52.082;5.426;2024-01-15T13:52:16;4.20;99.90
67890;DHT22;54685;52.082;5.426;2024-01-15T13:54:45;3.90;99.90
67890;DHT22;54685;52.082;5.426;2024-01-15T13:57:17;3.50;99.90
67890;DHT22;54685;52.082;5.426;2024-01-15T13:59:45;3.20;99.90
67890;DHT22;54685;52.082;5.426;2024-01-15T14:02:22;3.00;99.90
67890;DHT22;54685;52.082;5.426;2024-01-15T14:04:51;2.90;99.90
67890;DHT22;54685;52.082;5.426;2024-01-15T14:07:18;2.90;99.90
67890;DHT22;54685;52.082;5.426;2024-01-15T14:09:45;2.80;99.90
67890;DHT22;54685;52.082;5.426;2024-01-15T14:12:12;2.70;99.90
67890;DHT22;54685;52.082;5.426;2024-01-15T14:14:39;2.60;99.90
67890;DHT22;54685;52.082;5.426;2024-01-15T14:17:07;2.60;99.90
67890;DHT22;54685;52.082;5.426;2024-01-15T14:19:34;2.60;99.90
67890;DHT22;54685;52.082;5.426;2024-01-15T14:22:01;2.70;99.90
67890;DHT22;54685;52.082;5.426;2024-01-15T14:24:28;2.70;99.90
67890;DHT22;54685;52.082;5.426;2024-01-15T14:26:55;2.70;99.90
67890;DHT22;54685;52.082;5.426;2024-01-15T14:29:23;2.70;99.90
67890;DHT22;54685;52.082;5.426;2024-01-15T14:31:53;2.70;99.90
67890;DHT22;54685;52.082;5.426;2024-01-15T14:34:20;2.70;99.90
67890;DHT22;54685;52.082;5.426;2024-01-15T14:36:50;2.60;99.90
67890;DHT22;54685;52.082;5.426;2024-01-15T14:39:17;2.50;99.90
67890;DHT22;54685;52.082;5.426;2024-01-15T14:41:46;2.50;99.90
67890;DHT22;54685;52.082;5.426;2024-01-15T14:44:13;2.40;99.90
67890;DHT22;54685;52.082;5.426;2024-01-15T14:46:41;2.40;99.90
67890;DHT22;54685;52.082;5.426;2024-01-15T14:49:08;2.40;99.90
67890;DHT22;54685;52.082;5.426;2024-01-15T14:51:35;2.40;99.90
67890;DHT22;54685;52.082;5.426;2024-01-15T14:54:02;2.40;99.90
67890;DHT22;54685;52.082;5.426;2024-01-15T14:56:29;2.40;99.90
67890;DHT22;54685;52.082;5.426;2024-01-15T14:58:56;2.40;99.90
67890;DHT22;54685;52.082;5.426;2024-01-15T15:01:23;2.50;99.90
67890;DHT22;54685;52.082;5.426;2024-01-15T15:03:50;2.50;99.90
67890;DHT22;54685;52.082;5.426;2024-01-15T15:06:17;2.50;99.90
67890;DHT22;54685;52.082;5.426;2024-01-15T15:08:44;2.50;99.90
67890;DHT22;54685;52.082;5.426;2024-01-15T15:11:11;2.40;99.90
67890;DHT22;54685;52.082;5.426;2024-01-15T15:13:38;2.40;99.90
67890;DHT22;54685;52.082;5.426;2024-01-15T15:16:12;2.40;99.90
67890;DHT22;54685;52.082;5.426;2024-01-15T15:18:41;2.40;99.90
67890;DHT22;54685;52.082;5.426;2024-01-15T15:21:13;2.30;99.90
67890;DHT22;54685;52.082;5.426;2024-01-15T15:23:40;2.30;99.90
67890;DHT22;54685;52.082;5.426;2024-01-15T15:26:07;2.30;99.90
67890;DHT22;54685;52.082;5.426;2024-01-15T15:28:34;2.20;99.90
67890;DHT22;54685;52.082;5.426;2024-01-15T15:31:03;2.20;99.90
67890;DHT22;54685;52.082;5.426;2024-01-15T15:33:30;2.20;99.90
67890;DHT22;54685;52.082;5.426;2024-01-15T15:35:57;2.20;99.90
67890;DHT22;54685;52.082;5.426;2024-01-15T15:38:26;2.10;99.90
67890;DHT22;54685;52.082;5.426;2024-01-15T15:40:54;2.10;99.90
67890;DHT22;54685;52.082;5.426;2024-01-15T15:43:22;2.20;99.90
67890;DHT22;54685;52.082;5.426;2024-01-15T15:45:49;2.20;99.90
67890;DHT22;54685;52.082;5.426;2024-01-15T15:48:16;2.10;99.90
67890;DHT22;54685;52.082;5.426;2024-01-15T15:50:43;2.20;99.90
67890;DHT22;54685;52.082;5.426;2024-01-15T15:53:11;2.20;99.90
67890;DHT22;54685;52.082;5.426;2024-01-15T15:55:38;2.10;99.90
67890;DHT22;54685;52.082;5.426;2024-01-15T15:58:05;2.10;99.90